createdAt,value
2018-03-31T00:01:54.878Z,79.62
2018-03-31T00:04:21.863Z,79.61
2018-03-31T00:06:48.826Z,79.55
2018-03-31T00:09:15.779Z,79.42
2018-03-31T00:11:42.747Z,79.06
2018-03-31T00:14:09.698Z,78.92
2018-03-31T00:16:36.652Z,78.69
2018-03-31T00:19:03.643Z,78.61
2018-03-31T00:21:30.599Z,78.50
2018-03-31T00:23:57.575Z,78.44
2018-03-31T00:26:24.532Z,78.49
2018-03-31T00:28:51.507Z,78.38
2018-03-31T00:31:18.464Z,78.19
2018-03-31T00:33:45.446Z,78.06
2018-03-31T00:36:12.400Z,77.88
2018-03-31T00:38:39.374Z,77.67
2018-03-31T00:41:06.334Z,77.61
2018-03-31T00:43:33.320Z,77.43
2018-03-31T00:46:00.271Z,77.34
2018-03-31T00:48:27.242Z,77.24
2018-03-31T00:50:54.198Z,77.24
2018-03-31T00:53:22.150Z,77.35
2018-03-31T00:55:49.099Z,77.43
2018-03-31T00:58:16.079Z,77.57
2018-03-31T01:00:43.030Z,77.61
2018-03-31T01:03:10.003Z,77.67
2018-03-31T01:05:36.966Z,77.78
2018-03-31T01:08:03.928Z,77.83
2018-03-31T01:10:30.894Z,77.78
2018-03-31T01:12:57.842Z,77.97
2018-03-31T01:15:24.819Z,77.92
2018-03-31T01:17:51.794Z,77.78
2018-03-31T01:20:18.774Z,77.77
2018-03-31T01:22:45.718Z,77.62
2018-03-31T01:25:12.687Z,77.67
2018-03-31T01:27:39.643Z,77.59
2018-03-31T01:30:06.624Z,77.50
2018-03-31T01:32:33.583Z,77.58
2018-03-31T01:35:00.567Z,77.57
2018-03-31T01:37:27.515Z,77.60
2018-03-31T01:39:54.483Z,77.57
2018-03-31T01:42:21.496Z,77.47
2018-03-31T01:44:48.422Z,77.52
2018-03-31T01:47:15.377Z,77.58
2018-03-31T01:49:42.338Z,77.43
2018-03-31T01:52:09.283Z,77.40
2018-03-31T01:54:36.246Z,77.48
2018-03-31T01:57:03.189Z,77.33
2018-03-31T01:59:30.134Z,77.27
2018-03-31T02:01:57.102Z,77.32
2018-03-31T02:04:24.047Z,77.41
2018-03-31T02:06:51.023Z,77.41
2018-03-31T02:09:17.962Z,77.47
2018-03-31T02:11:44.931Z,77.48
2018-03-31T02:14:11.888Z,77.35
2018-03-31T02:16:38.854Z,77.40
2018-03-31T02:19:05.799Z,77.44
2018-03-31T02:21:32.768Z,77.42
2018-03-31T02:23:59.720Z,77.59
2018-03-31T02:26:26.683Z,77.62
2018-03-31T02:28:53.617Z,77.67
2018-03-31T02:31:20.593Z,77.65
2018-03-31T02:33:47.547Z,77.75
2018-03-31T02:36:14.527Z,77.77
2018-03-31T02:38:41.462Z,77.69
2018-03-31T02:41:08.436Z,77.77
2018-03-31T02:43:35.379Z,77.68
2018-03-31T02:46:02.350Z,77.58
2018-03-31T02:48:29.294Z,77.60
2018-03-31T02:50:56.267Z,77.94
2018-03-31T02:53:23.232Z,78.17
2018-03-31T02:55:50.197Z,78.24
2018-03-31T02:58:17.167Z,78.36
2018-03-31T03:00:44.120Z,78.36
2018-03-31T03:03:11.091Z,78.17
2018-03-31T03:05:38.057Z,78.02
2018-03-31T03:08:05.017Z,77.83
2018-03-31T03:10:31.977Z,77.60
2018-03-31T03:12:58.952Z,77.38
2018-03-31T03:15:25.896Z,77.04
2018-03-31T03:17:52.862Z,76.82
2018-03-31T03:20:19.802Z,76.70
2018-03-31T03:22:46.771Z,76.62
2018-03-31T03:25:13.714Z,76.57
2018-03-31T03:27:40.708Z,76.61
2018-03-31T03:30:07.660Z,76.56
2018-03-31T03:32:34.626Z,76.44
2018-03-31T03:35:01.628Z,76.40
2018-03-31T03:37:28.606Z,76.39
2018-03-31T03:39:55.551Z,76.56
2018-03-31T03:42:22.524Z,76.55
2018-03-31T03:44:49.470Z,76.83
2018-03-31T03:47:16.437Z,77.00
2018-03-31T03:49:43.378Z,77.11
2018-03-31T03:52:10.314Z,77.16
2018-03-31T03:54:37.280Z,77.15
2018-03-31T03:57:04.241Z,77.05
2018-03-31T03:59:31.214Z,77.12
2018-03-31T04:01:58.158Z,77.08
2018-03-31T04:04:25.159Z,77.21
2018-03-31T04:06:52.098Z,77.08
2018-03-31T04:09:19.073Z,77.15
2018-03-31T04:11:46.035Z,77.07
2018-03-31T04:14:13.013Z,77.22
2018-03-31T04:16:39.991Z,77.15
2018-03-31T04:19:06.962Z,77.26
2018-03-31T04:21:33.907Z,77.44
2018-03-31T04:24:00.875Z,77.57
2018-03-31T04:26:27.822Z,77.57
2018-03-31T04:28:54.788Z,77.79
2018-03-31T04:31:21.747Z,77.96
2018-03-31T04:33:48.722Z,78.13
2018-03-31T04:36:15.662Z,78.30
2018-03-31T04:38:42.641Z,78.41
2018-03-31T04:41:09.595Z,78.47
2018-03-31T04:43:36.551Z,78.49
2018-03-31T04:46:03.522Z,78.39
2018-03-31T04:48:30.479Z,78.53
2018-03-31T04:50:57.477Z,78.53
2018-03-31T04:53:24.438Z,78.54
2018-03-31T04:55:51.434Z,78.57
2018-03-31T04:58:18.382Z,78.55
2018-03-31T05:00:45.379Z,78.74
2018-03-31T05:03:12.351Z,78.74
2018-03-31T05:05:39.334Z,78.81
2018-03-31T05:08:06.288Z,78.81
2018-03-31T05:10:33.255Z,78.96
2018-03-31T05:13:00.206Z,79.08
2018-03-31T05:15:27.173Z,78.95
2018-03-31T05:17:54.129Z,78.99
2018-03-31T05:20:21.127Z,79.10
2018-03-31T05:22:48.084Z,79.05
2018-03-31T05:25:15.059Z,79.18
2018-03-31T05:27:42.084Z,79.23
2018-03-31T05:30:09.055Z,79.28
2018-03-31T05:32:36.011Z,79.31
2018-03-31T05:35:02.981Z,79.50
2018-03-31T05:37:29.931Z,79.29
2018-03-31T05:39:56.886Z,79.24
2018-03-31T05:42:23.867Z,79.06
2018-03-31T05:44:50.823Z,78.82
2018-03-31T05:47:17.801Z,78.64
2018-03-31T05:49:44.748Z,78.58
2018-03-31T05:52:11.746Z,78.65
2018-03-31T05:54:38.696Z,78.90
2018-03-31T05:57:05.716Z,79.13
2018-03-31T05:59:32.695Z,79.12
2018-03-31T06:01:59.673Z,78.81
2018-03-31T06:04:26.621Z,78.69
2018-03-31T06:06:53.588Z,78.67
2018-03-31T06:09:21.609Z,78.62
2018-03-31T06:11:48.626Z,78.33
2018-03-31T06:14:15.579Z,77.34
2018-03-31T06:16:42.555Z,78.19
2018-03-31T06:19:09.502Z,77.93
2018-03-31T06:21:36.698Z,77.78
2018-03-31T06:24:03.679Z,77.67
2018-03-31T06:26:30.690Z,77.34
2018-03-31T06:28:57.660Z,77.75
2018-03-31T06:31:24.649Z,77.20
2018-03-31T06:33:51.624Z,77.64
2018-03-31T06:36:18.592Z,77.73
2018-03-31T06:38:45.572Z,77.74
2018-03-31T06:41:12.563Z,77.32
2018-03-31T06:43:39.553Z,77.34
2018-03-31T06:46:06.509Z,77.26
2018-03-31T06:48:33.492Z,77.41
2018-03-31T06:51:00.457Z,77.38
2018-03-31T06:53:27.450Z,77.09
2018-03-31T06:55:54.411Z,76.90
2018-03-31T06:58:21.454Z,76.39
2018-03-31T07:00:48.368Z,76.24
2018-03-31T07:03:15.343Z,76.18
2018-03-31T07:05:42.316Z,75.89
2018-03-31T07:08:09.301Z,76.18
2018-03-31T07:10:36.258Z,76.21
2018-03-31T07:13:03.239Z,76.67
2018-03-31T07:15:30.225Z,76.44
2018-03-31T07:17:57.211Z,76.01
2018-03-31T07:20:24.172Z,76.06
2018-03-31T07:22:51.154Z,76.02
2018-03-31T07:25:18.136Z,75.99
2018-03-31T07:27:45.226Z,76.29
2018-03-31T07:30:12.190Z,76.12
2018-03-31T07:32:39.147Z,76.34
2018-03-31T07:35:06.119Z,76.86
2018-03-31T07:37:33.139Z,77.18
2018-03-31T07:40:00.160Z,77.03
2018-03-31T07:42:27.110Z,77.17
2018-03-31T07:44:54.075Z,77.08
2018-03-31T07:47:21.037Z,76.93
2018-03-31T07:49:48.018Z,77.03
2018-03-31T07:52:15.256Z,77.19
2018-03-31T07:54:42.249Z,76.86
2018-03-31T07:57:09.198Z,76.18
2018-03-31T07:59:36.188Z,76.42
2018-03-31T08:02:03.153Z,75.50
2018-03-31T08:04:30.144Z,75.11
2018-03-31T08:06:57.117Z,74.46
2018-03-31T08:09:24.114Z,74.20
2018-03-31T08:11:51.073Z,74.11
2018-03-31T08:14:18.052Z,74.08
2018-03-31T08:16:45.036Z,74.67
2018-03-31T08:19:12.016Z,75.01
2018-03-31T08:21:38.991Z,75.43
2018-03-31T08:24:05.996Z,75.66
2018-03-31T08:26:32.956Z,75.46
2018-03-31T08:28:59.913Z,74.40
2018-03-31T08:31:26.884Z,73.50
2018-03-31T08:33:53.838Z,72.81
2018-03-31T08:36:20.812Z,72.68
2018-03-31T08:38:47.770Z,72.67
2018-03-31T08:41:14.740Z,71.53
2018-03-31T08:43:41.696Z,70.11
2018-03-31T08:46:08.691Z,68.51
2018-03-31T08:48:35.651Z,66.99
2018-03-31T08:51:02.618Z,66.43
2018-03-31T08:53:29.583Z,66.54
2018-03-31T08:55:56.561Z,66.03
2018-03-31T08:58:24.096Z,63.90
2018-03-31T09:00:51.078Z,64.37
2018-03-31T09:03:18.073Z,64.60
2018-03-31T09:05:45.079Z,65.10
2018-03-31T09:08:12.022Z,66.81
2018-03-31T09:10:39.000Z,65.79
2018-03-31T09:13:05.955Z,65.13
2018-03-31T09:15:32.948Z,64.16
2018-03-31T09:17:59.926Z,65.26
2018-03-31T09:20:26.886Z,63.72
2018-03-31T09:22:53.902Z,61.34
2018-03-31T09:25:20.846Z,60.79
2018-03-31T09:27:47.816Z,58.80
2018-03-31T09:30:14.797Z,58.63
2018-03-31T09:32:41.782Z,53.60
2018-03-31T09:35:08.751Z,52.71
2018-03-31T09:37:35.759Z,53.39
2018-03-31T09:40:02.722Z,54.93
2018-03-31T09:42:29.703Z,56.29
2018-03-31T09:44:56.668Z,56.74
2018-03-31T09:47:23.655Z,55.83
2018-03-31T09:49:50.628Z,54.89
2018-03-31T09:52:17.612Z,55.74
2018-03-31T09:54:44.576Z,54.51
2018-03-31T09:57:11.552Z,54.80
2018-03-31T09:59:38.516Z,55.99
2018-03-31T10:02:05.509Z,58.12
2018-03-31T10:04:32.464Z,58.04
2018-03-31T10:06:59.446Z,59.16
2018-03-31T10:09:26.398Z,59.78
2018-03-31T10:11:53.376Z,60.28
2018-03-31T10:14:20.331Z,58.74
2018-03-31T10:16:47.305Z,58.32
2018-03-31T10:19:14.283Z,58.39
2018-03-31T10:21:41.250Z,59.49
2018-03-31T10:24:08.234Z,59.31
2018-03-31T10:26:35.214Z,58.04
2018-03-31T10:29:02.191Z,58.00
2018-03-31T10:31:29.148Z,56.52
2018-03-31T10:33:56.146Z,55.02
2018-03-31T10:36:23.123Z,54.60
2018-03-31T10:38:50.100Z,57.57
2018-03-31T10:41:17.065Z,58.69
2018-03-31T10:43:44.032Z,56.69
2018-03-31T10:46:10.978Z,56.08
2018-03-31T10:48:37.950Z,55.97
2018-03-31T10:51:04.899Z,51.93
2018-03-31T10:53:31.863Z,52.25
2018-03-31T10:55:58.817Z,51.06
2018-03-31T10:58:25.803Z,51.64
2018-03-31T11:00:52.751Z,48.08
2018-03-31T11:03:19.728Z,47.65
2018-03-31T11:05:46.677Z,47.73
2018-03-31T11:08:13.661Z,49.29
2018-03-31T11:10:40.635Z,52.09
2018-03-31T11:13:07.584Z,54.44
2018-03-31T11:15:34.562Z,55.12
2018-03-31T11:18:01.516Z,55.59
2018-03-31T11:20:28.493Z,55.29
2018-03-31T11:22:55.464Z,54.46
2018-03-31T11:25:22.446Z,52.70
2018-03-31T11:27:49.401Z,52.59
2018-03-31T11:30:16.393Z,52.72
2018-03-31T11:32:43.352Z,52.04
2018-03-31T11:35:10.323Z,49.45
2018-03-31T11:37:37.285Z,49.72
2018-03-31T11:40:04.264Z,48.32
2018-03-31T11:42:31.210Z,47.11
2018-03-31T11:44:58.174Z,48.08
2018-03-31T11:47:25.133Z,47.52
2018-03-31T11:49:52.114Z,46.39
2018-03-31T11:52:19.067Z,46.46
2018-03-31T11:54:46.054Z,46.13
2018-03-31T11:57:13.931Z,45.70
2018-03-31T11:59:40.902Z,42.27
2018-03-31T12:02:07.871Z,40.65
2018-03-31T12:04:34.841Z,41.24
2018-03-31T12:07:01.791Z,44.24
2018-03-31T12:09:28.729Z,43.95
2018-03-31T12:11:55.690Z,41.23
2018-03-31T12:14:22.631Z,38.62
2018-03-31T12:16:49.595Z,36.31
2018-03-31T12:19:16.553Z,37.38
2018-03-31T12:21:43.520Z,40.21
2018-03-31T12:24:10.468Z,40.07
2018-03-31T12:26:37.434Z,42.57
2018-03-31T12:29:04.387Z,44.62
2018-03-31T12:31:31.418Z,46.38
2018-03-31T12:33:58.367Z,47.89
2018-03-31T12:36:25.340Z,48.20
2018-03-31T12:38:52.327Z,48.57
2018-03-31T12:41:19.304Z,49.98
2018-03-31T12:43:46.255Z,50.21
2018-03-31T12:46:13.226Z,48.73
2018-03-31T12:48:40.171Z,47.91
2018-03-31T12:51:07.137Z,47.96
2018-03-31T12:53:34.088Z,48.35
2018-03-31T12:56:01.063Z,47.70
2018-03-31T12:58:28.014Z,46.83
2018-03-31T13:00:55.001Z,47.94
2018-03-31T13:03:21.951Z,48.57
2018-03-31T13:05:48.911Z,49.85
2018-03-31T13:08:15.886Z,50.23
2018-03-31T13:10:42.831Z,50.79
2018-03-31T13:13:09.794Z,51.04
2018-03-31T13:15:36.738Z,51.35
2018-03-31T13:18:03.748Z,50.30
2018-03-31T13:20:30.698Z,49.93
2018-03-31T13:22:57.670Z,49.96
2018-03-31T13:25:25.563Z,49.85
2018-03-31T13:27:52.537Z,50.77
2018-03-31T13:30:19.484Z,51.29
2018-03-31T13:32:46.455Z,50.56
2018-03-31T13:35:13.404Z,49.56
2018-03-31T13:37:40.368Z,50.15
2018-03-31T13:40:07.327Z,49.62
2018-03-31T13:42:34.297Z,49.57
2018-03-31T13:45:01.241Z,49.34
2018-03-31T13:47:28.216Z,49.86
2018-03-31T13:49:55.154Z,50.54
2018-03-31T13:52:22.127Z,50.26
2018-03-31T13:54:49.076Z,50.36
2018-03-31T13:57:16.054Z,51.78
2018-03-31T13:59:43.011Z,50.64
2018-03-31T14:02:09.950Z,50.20
2018-03-31T14:04:36.920Z,48.25
2018-03-31T14:07:03.862Z,47.77
2018-03-31T14:09:30.883Z,47.14
2018-03-31T14:11:57.829Z,46.23
2018-03-31T14:14:24.798Z,46.58
2018-03-31T14:16:51.752Z,47.09
2018-03-31T14:19:18.723Z,46.34
2018-03-31T14:21:45.675Z,46.61
2018-03-31T14:24:12.651Z,46.77
2018-03-31T14:26:39.599Z,45.93
2018-03-31T14:29:07.465Z,46.68
2018-03-31T14:31:34.415Z,46.93
2018-03-31T14:34:01.380Z,46.83
2018-03-31T14:36:28.336Z,47.31
2018-03-31T14:38:55.314Z,47.14
2018-03-31T14:41:22.262Z,47.05
2018-03-31T14:43:49.226Z,46.63
2018-03-31T14:46:16.171Z,46.43
2018-03-31T14:48:43.130Z,46.31
2018-03-31T14:51:10.078Z,46.25
2018-03-31T14:53:37.057Z,46.31
2018-03-31T14:56:04.002Z,45.78
2018-03-31T14:58:30.938Z,45.58
2018-03-31T15:00:57.915Z,45.36
2018-03-31T15:03:24.863Z,44.68
2018-03-31T15:05:51.825Z,44.62
2018-03-31T15:08:18.787Z,45.32
2018-03-31T15:10:45.759Z,44.88
2018-03-31T15:13:12.703Z,45.04
2018-03-31T15:15:39.678Z,44.68
2018-03-31T15:18:06.618Z,44.90
2018-03-31T15:20:33.583Z,44.30
2018-03-31T15:23:00.536Z,45.45
2018-03-31T15:25:27.527Z,44.84
2018-03-31T15:27:54.479Z,45.67
2018-03-31T15:30:21.634Z,45.00
2018-03-31T15:32:48.649Z,45.50
2018-03-31T15:35:15.626Z,45.42
2018-03-31T15:37:43.526Z,44.89
2018-03-31T15:40:10.565Z,45.17
2018-03-31T15:42:37.534Z,45.45
2018-03-31T15:45:04.515Z,43.72
2018-03-31T15:47:31.535Z,43.66
2018-03-31T15:49:58.570Z,43.03
2018-03-31T15:52:25.510Z,43.40
2018-03-31T15:54:52.598Z,43.50
2018-03-31T15:57:19.588Z,43.20
2018-03-31T15:59:46.583Z,42.50
2018-03-31T16:02:13.573Z,41.79
2018-03-31T16:04:40.662Z,41.52
2018-03-31T16:07:07.642Z,40.85
2018-03-31T16:09:34.690Z,41.27
2018-03-31T16:12:02.699Z,41.97
2018-03-31T16:14:29.719Z,42.40
2018-03-31T16:16:56.701Z,42.44
2018-03-31T16:19:23.670Z,42.89
2018-03-31T16:21:51.534Z,42.26
2018-03-31T16:24:18.529Z,42.58
2018-03-31T16:26:45.517Z,43.37
2018-03-31T16:29:12.463Z,43.24
2018-03-31T16:31:39.502Z,43.63
2018-03-31T16:34:06.474Z,43.99
2018-03-31T16:36:33.565Z,42.83
2018-03-31T16:39:00.538Z,42.68
2018-03-31T16:41:27.510Z,42.89
2018-03-31T16:43:54.531Z,43.53
2018-03-31T16:46:21.583Z,44.79
2018-03-31T16:48:48.598Z,44.83
2018-03-31T16:51:15.626Z,47.34
2018-03-31T16:53:42.620Z,47.75
2018-03-31T16:56:09.631Z,47.82
2018-03-31T16:58:36.709Z,48.05
2018-03-31T17:01:03.660Z,48.57
2018-03-31T17:03:30.623Z,50.31
2018-03-31T17:05:57.571Z,49.73
2018-03-31T17:08:24.541Z,49.87
2018-03-31T17:10:51.478Z,49.88
2018-03-31T17:13:18.443Z,50.56
2018-03-31T17:15:45.391Z,50.52
2018-03-31T17:18:12.362Z,50.83
2018-03-31T17:20:39.312Z,51.13
2018-03-31T17:23:06.278Z,51.12
2018-03-31T17:25:33.228Z,51.73
2018-03-31T17:28:00.191Z,51.88
2018-03-31T17:30:27.150Z,52.60
2018-03-31T17:32:54.120Z,52.49
2018-03-31T17:35:21.079Z,53.12
2018-03-31T17:37:48.042Z,53.92
2018-03-31T17:40:14.991Z,54.39
2018-03-31T17:42:41.943Z,54.79
2018-03-31T17:45:08.915Z,55.54
2018-03-31T17:47:37.319Z,55.86
2018-03-31T17:50:04.326Z,56.45
2018-03-31T17:52:31.267Z,56.65
2018-03-31T17:54:58.237Z,57.04
2018-03-31T17:57:25.182Z,56.89
2018-03-31T17:59:52.155Z,57.38
2018-03-31T18:02:19.149Z,57.58
2018-03-31T18:04:46.130Z,57.60
2018-03-31T18:07:13.070Z,57.74
2018-03-31T18:09:40.030Z,57.67
2018-03-31T18:12:06.971Z,57.81
2018-03-31T18:14:33.932Z,58.41
2018-03-31T18:17:00.866Z,58.40
2018-03-31T18:19:27.831Z,58.57
2018-03-31T18:21:54.787Z,59.18
2018-03-31T18:24:21.763Z,59.67
2018-03-31T18:26:48.717Z,60.09
2018-03-31T18:29:15.707Z,60.33
2018-03-31T18:31:42.660Z,60.51
2018-03-31T18:34:09.627Z,61.02
2018-03-31T18:36:36.577Z,61.35
2018-03-31T18:39:03.654Z,61.60
2018-03-31T18:41:30.576Z,61.46
2018-03-31T18:43:57.579Z,61.75
2018-03-31T18:46:24.538Z,61.92
2018-03-31T18:48:51.482Z,61.96
2018-03-31T18:51:18.451Z,62.00
2018-03-31T18:53:45.394Z,62.20
2018-03-31T18:56:12.353Z,61.87
2018-03-31T18:58:39.294Z,61.76
2018-03-31T19:01:06.260Z,61.02
2018-03-31T19:03:33.211Z,61.67
2018-03-31T19:06:00.208Z,62.21
2018-03-31T19:08:27.150Z,62.45
2018-03-31T19:10:54.392Z,63.14
2018-03-31T19:13:21.337Z,63.57
2018-03-31T19:15:48.295Z,64.04
2018-03-31T19:18:15.230Z,63.97
2018-03-31T19:20:42.195Z,64.26
2018-03-31T19:23:09.132Z,64.48
2018-03-31T19:25:36.101Z,64.72
2018-03-31T19:28:03.041Z,64.92
2018-03-31T19:30:35.515Z,65.01
2018-03-31T19:33:02.458Z,64.71
2018-03-31T19:35:29.423Z,64.88
2018-03-31T19:37:56.387Z,65.30
2018-03-31T19:40:23.339Z,65.43
2018-03-31T19:42:50.298Z,65.54
2018-03-31T19:45:17.259Z,65.37
2018-03-31T19:47:44.231Z,65.40
2018-03-31T19:50:11.196Z,65.70
2018-03-31T19:52:38.166Z,65.54
2018-03-31T19:55:05.147Z,65.53
2018-03-31T19:57:32.113Z,65.61
2018-03-31T19:59:59.054Z,65.46
2018-03-31T20:02:26.019Z,65.16
2018-03-31T20:04:52.971Z,65.53
2018-03-31T20:07:19.938Z,65.59
2018-03-31T20:09:46.886Z,65.49
2018-03-31T20:12:13.859Z,65.38
2018-03-31T20:14:40.808Z,65.63
2018-03-31T20:17:07.796Z,65.76
2018-03-31T20:19:34.733Z,65.89
2018-03-31T20:22:01.705Z,65.72
2018-03-31T20:24:28.650Z,66.07
2018-03-31T20:26:55.599Z,66.35
2018-03-31T20:29:22.562Z,66.23
2018-03-31T20:31:49.535Z,66.59
2018-03-31T20:34:16.514Z,66.99
2018-03-31T20:36:43.471Z,67.05
2018-03-31T20:39:10.439Z,67.55
2018-03-31T20:41:37.385Z,67.73
2018-03-31T20:44:04.357Z,68.18
2018-03-31T20:46:31.313Z,68.31
2018-03-31T20:48:58.288Z,68.32
2018-03-31T20:51:25.235Z,68.53
2018-03-31T20:53:52.215Z,68.69
2018-03-31T20:56:19.183Z,69.11
2018-03-31T20:58:46.158Z,69.67
2018-03-31T21:01:13.116Z,69.99
2018-03-31T21:03:40.081Z,70.40
2018-03-31T21:06:07.026Z,70.87
2018-03-31T21:08:34.015Z,71.24
2018-03-31T21:11:00.962Z,71.35
2018-03-31T21:13:27.932Z,72.16
2018-03-31T21:15:54.898Z,72.60
2018-03-31T21:18:21.879Z,72.89
2018-03-31T21:20:48.888Z,72.96
2018-03-31T21:23:15.839Z,73.14
2018-03-31T21:25:42.812Z,73.07
2018-03-31T21:28:09.870Z,73.35
2018-03-31T21:30:36.873Z,73.55
2018-03-31T21:33:03.827Z,73.66
2018-03-31T21:35:30.949Z,73.70
2018-03-31T21:37:57.915Z,73.68
2018-03-31T21:40:24.890Z,73.73
2018-03-31T21:42:52.083Z,73.91
2018-03-31T21:45:19.236Z,74.08
2018-03-31T21:47:46.202Z,74.16
2018-03-31T21:50:13.177Z,74.23
2018-03-31T21:52:40.288Z,74.45
2018-03-31T21:55:07.302Z,74.63
2018-03-31T21:57:34.266Z,74.76
2018-03-31T22:00:01.240Z,74.77
2018-03-31T22:02:28.198Z,74.76
2018-03-31T22:04:55.167Z,74.86
2018-03-31T22:07:22.131Z,74.99
2018-03-31T22:09:49.114Z,75.28
2018-03-31T22:12:16.062Z,75.38
2018-03-31T22:14:48.538Z,75.53
2018-03-31T22:17:15.491Z,75.60
2018-03-31T22:19:42.447Z,75.68
2018-03-31T22:22:09.418Z,75.68
2018-03-31T22:24:36.371Z,75.78
2018-03-31T22:27:03.342Z,75.84
2018-03-31T22:29:30.327Z,75.96
2018-03-31T22:31:57.299Z,76.12
2018-03-31T22:34:24.265Z,76.12
2018-03-31T22:36:51.238Z,76.11
2018-03-31T22:39:18.225Z,76.13
2018-03-31T22:41:45.275Z,76.11
2018-03-31T22:44:12.218Z,76.17
2018-03-31T22:46:39.189Z,76.34
2018-03-31T22:49:06.137Z,76.47
2018-03-31T22:51:33.111Z,76.63
2018-03-31T22:54:00.083Z,76.77
2018-03-31T22:56:27.052Z,76.89
2018-03-31T22:58:53.994Z,77.05
2018-03-31T23:01:20.971Z,77.27
2018-03-31T23:03:48.286Z,77.39
2018-03-31T23:06:15.267Z,77.58
2018-03-31T23:08:42.219Z,77.47
2018-03-31T23:11:09.176Z,77.38
2018-03-31T23:13:36.151Z,77.27
2018-03-31T23:16:03.096Z,77.15
2018-03-31T23:18:30.105Z,76.44
2018-03-31T23:20:57.060Z,75.98
2018-03-31T23:23:24.031Z,75.60
2018-03-31T23:25:50.978Z,75.23
2018-03-31T23:28:17.946Z,75.39
2018-03-31T23:30:44.899Z,75.92
2018-03-31T23:33:11.867Z,76.12
2018-03-31T23:35:38.827Z,76.57
2018-03-31T23:38:05.794Z,76.62
2018-03-31T23:40:32.747Z,76.53
2018-03-31T23:42:59.719Z,76.11
2018-03-31T23:45:26.669Z,75.85
2018-03-31T23:47:53.644Z,75.42
2018-03-31T23:50:20.621Z,75.18
2018-03-31T23:52:47.586Z,74.93
2018-03-31T23:55:14.530Z,74.99
2018-03-31T23:57:41.503Z,74.69
